sensor_id;sensor_type;location;lat;lon;timestamp;temperature;humidity
35645;DHT22;21764;52.042;6.830;2023-09-18T00:05:00;18.50;99.90
35645;DHT22;21764;52.042;6.830;2023-09-18T00:10:00;18.40;99.90
35645;DHT22;21764;52.042;6.830;2023-09-18T00:15:01;18.50;99.90
35645;DHT22;21764;52.042;6.830;2023-09-18T00:20:02;18.50;99.90
35645;DHT22;21764;52.042;6.830;2023-09-18T00:25:12;18.50;99.90
35645;DHT22;21764;52.042;6.830;2023-09-18T00:30:15;18.50;99.90
35645;DHT22;21764;52.042;6.830;2023-09-18T00:35:15;18.60;99.90
35645;DHT22;21764;52.042;6.830;2023-09-18T00:40:16;18.60;99.90
35645;DHT22;21764;52.042;6.830;2023-09-18T00:45:17;18.50;99.90
35645;DHT22;21764;52.042;6.830;2023-09-18T00:50:18;18.60;99.90
35645;DHT22;21764;52.042;6.830;2023-09-18T00:55:19;18.60;99.90
35645;DHT22;21764;52.042;6.830;2023-09-18T01:00:20;18.50;99.90
35645;DHT22;21764;52.042;6.830;2023-09-18T01:05:21;18.50;99.90
35645;DHT22;21764;52.042;6.830;2023-09-18T01:10:24;18.50;99.90
35645;DHT22;21764;52.042;6.830;2023-09-18T01:15:37;18.60;99.90
35645;DHT22;21764;52.042;6.830;2023-09-18T01:20:43;18.60;99.90
35645;DHT22;21764;52.042;6.830;2023-09-18T01:25:45;18.50;99.90
35645;DHT22;21764;52.042;6.830;2023-09-18T01:30:45;18.60;99.90
35645;DHT22;21764;52.042;6.830;2023-09-18T01:35:47;18.60;99.90
35645;DHT22;21764;52.042;6.830;2023-09-18T01:40:50;18.60;99.90
35645;DHT22;21764;52.042;6.830;2023-09-18T01:45:52;18.60;99.90
35645;DHT22;21764;52.042;6.830;2023-09-18T01:50:53;18.70;99.90
35645;DHT22;21764;52.042;6.830;2023-09-18T01:55:54;18.80;99.90
35645;DHT22;21764;52.042;6.830;2023-09-18T02:00:54;18.90;99.90
35645;DHT22;21764;52.042;6.830;2023-09-18T02:05:55;19.00;99.90
35645;DHT22;21764;52.042;6.830;2023-09-18T02:10:55;19.10;99.90
35645;DHT22;21764;52.042;6.830;2023-09-18T02:15:56;19.30;99.90
35645;DHT22;21764;52.042;6.830;2023-09-18T02:20:57;19.40;99.90
35645;DHT22;21764;52.042;6.830;2023-09-18T02:25:58;19.40;99.90
35645;DHT22;21764;52.042;6.830;2023-09-18T02:30:59;19.30;99.90
35645;DHT22;21764;52.042;6.830;2023-09-18T02:36:00;19.30;99.90
35645;DHT22;21764;52.042;6.830;2023-09-18T02:41:00;19.30;99.90
35645;DHT22;21764;52.042;6.830;2023-09-18T02:46:01;19.30;99.90
35645;DHT22;21764;52.042;6.830;2023-09-18T02:51:02;19.30;99.90
35645;DHT22;21764;52.042;6.830;2023-09-18T02:56:03;19.40;99.90
35645;DHT22;21764;52.042;6.830;2023-09-18T03:01:06;19.40;99.90
35645;DHT22;21764;52.042;6.830;2023-09-18T03:06:07;19.30;99.90
35645;DHT22;21764;52.042;6.830;2023-09-18T03:11:12;19.30;99.90
35645;DHT22;21764;52.042;6.830;2023-09-18T03:16:13;19.40;99.90
35645;DHT22;21764;52.042;6.830;2023-09-18T03:21:14;19.40;99.90
35645;DHT22;21764;52.042;6.830;2023-09-18T03:26:14;19.40;99.90
35645;DHT22;21764;52.042;6.830;2023-09-18T03:31:15;19.30;99.90
35645;DHT22;21764;52.042;6.830;2023-09-18T03:36:16;19.40;99.90
35645;DHT22;21764;52.042;6.830;2023-09-18T03:41:16;19.40;99.90
35645;DHT22;21764;52.042;6.830;2023-09-18T03:46:17;19.40;99.90
35645;DHT22;21764;52.042;6.830;2023-09-18T03:51:18;19.30;99.90
35645;DHT22;21764;52.042;6.830;2023-09-18T03:56:19;19.40;99.90
35645;DHT22;21764;52.042;6.830;2023-09-18T04:01:20;19.40;99.90
35645;DHT22;21764;52.042;6.830;2023-09-18T04:06:21;19.40;99.90
35645;DHT22;21764;52.042;6.830;2023-09-18T04:11:24;19.50;99.90
35645;DHT22;21764;52.042;6.830;2023-09-18T04:16:26;19.60;99.90
35645;DHT22;21764;52.042;6.830;2023-09-18T04:21:28;19.60;99.90
35645;DHT22;21764;52.042;6.830;2023-09-18T04:26:35;19.60;99.90
35645;DHT22;21764;52.042;6.830;2023-09-18T04:31:36;19.60;99.90
35645;DHT22;21764;52.042;6.830;2023-09-18T04:36:36;19.60;99.90
35645;DHT22;21764;52.042;6.830;2023-09-18T04:41:38;19.70;99.90
35645;DHT22;21764;52.042;6.830;2023-09-18T04:46:39;19.70;99.90
35645;DHT22;21764;52.042;6.830;2023-09-18T04:51:42;19.70;99.90
35645;DHT22;21764;52.042;6.830;2023-09-18T04:56:44;19.80;99.90
35645;DHT22;21764;52.042;6.830;2023-09-18T05:01:45;19.80;99.90
35645;DHT22;21764;52.042;6.830;2023-09-18T05:06:46;19.80;99.90
35645;DHT22;21764;52.042;6.830;2023-09-18T05:11:47;19.00;99.90
35645;DHT22;21764;52.042;6.830;2023-09-18T05:16:49;18.80;99.90
35645;DHT22;21764;52.042;6.830;2023-09-18T05:21:50;18.70;99.90
35645;DHT22;21764;52.042;6.830;2023-09-18T05:26:50;18.70;99.90
35645;DHT22;21764;52.042;6.830;2023-09-18T05:31:53;18.60;99.90
35645;DHT22;21764;52.042;6.830;2023-09-18T05:36:53;18.70;99.90
35645;DHT22;21764;52.042;6.830;2023-09-18T05:41:54;18.70;99.90
35645;DHT22;21764;52.042;6.830;2023-09-18T05:46:55;18.80;99.90
35645;DHT22;21764;52.042;6.830;2023-09-18T05:51:55;18.80;99.90
35645;DHT22;21764;52.042;6.830;2023-09-18T05:56:57;18.80;99.90
35645;DHT22;21764;52.042;6.830;2023-09-18T06:01:58;18.80;99.90
35645;DHT22;21764;52.042;6.830;2023-09-18T06:06:59;18.80;99.90
35645;DHT22;21764;52.042;6.830;2023-09-18T06:12:00;18.90;99.90
35645;DHT22;21764;52.042;6.830;2023-09-18T06:17:01;18.90;99.90
35645;DHT22;21764;52.042;6.830;2023-09-18T06:22:02;19.00;99.90
35645;DHT22;21764;52.042;6.830;2023-09-18T06:27:04;19.10;99.90
35645;DHT22;21764;52.042;6.830;2023-09-18T06:32:05;19.20;99.90
35645;DHT22;21764;52.042;6.830;2023-09-18T06:37:06;19.30;99.90
35645;DHT22;21764;52.042;6.830;2023-09-18T06:42:08;19.40;99.90
35645;DHT22;21764;52.042;6.830;2023-09-18T06:47:09;19.40;99.90
35645;DHT22;21764;52.042;6.830;2023-09-18T06:52:10;19.50;99.90
35645;DHT22;21764;52.042;6.830;2023-09-18T06:57:11;19.60;99.90
35645;DHT22;21764;52.042;6.830;2023-09-18T07:02:11;19.80;99.90
35645;DHT22;21764;52.042;6.830;2023-09-18T07:07:15;19.90;99.90
35645;DHT22;21764;52.042;6.830;2023-09-18T07:12:16;20.10;99.90
35645;DHT22;21764;52.042;6.830;2023-09-18T07:17:19;20.20;99.90
35645;DHT22;21764;52.042;6.830;2023-09-18T07:22:20;20.30;99.90
35645;DHT22;21764;52.042;6.830;2023-09-18T07:27:21;20.40;99.90
35645;DHT22;21764;52.042;6.830;2023-09-18T07:32:21;20.70;99.90
35645;DHT22;21764;52.042;6.830;2023-09-18T07:37:23;21.10;99.90
35645;DHT22;21764;52.042;6.830;2023-09-18T07:42:25;20.90;99.90
35645;DHT22;21764;52.042;6.830;2023-09-18T07:47:26;20.70;99.90
35645;DHT22;21764;52.042;6.830;2023-09-18T07:52:27;20.60;99.90
35645;DHT22;21764;52.042;6.830;2023-09-18T07:57:27;20.60;99.90
35645;DHT22;21764;52.042;6.830;2023-09-18T08:02:34;20.60;99.90
35645;DHT22;21764;52.042;6.830;2023-09-18T08:07:38;20.70;99.90
35645;DHT22;21764;52.042;6.830;2023-09-18T08:12:39;20.60;99.90
35645;DHT22;21764;52.042;6.830;2023-09-18T08:17:39;20.50;99.90
35645;DHT22;21764;52.042;6.830;2023-09-18T08:22:42;20.60;99.90
35645;DHT22;21764;52.042;6.830;2023-09-18T08:27:43;20.80;99.90
35645;DHT22;21764;52.042;6.830;2023-09-18T08:32:44;21.30;99.90
35645;DHT22;21764;52.042;6.830;2023-09-18T08:37:45;22.00;99.90
35645;DHT22;21764;52.042;6.830;2023-09-18T08:42:47;22.40;99.90
35645;DHT22;21764;52.042;6.830;2023-09-18T08:47:50;22.10;99.90
35645;DHT22;21764;52.042;6.830;2023-09-18T08:52:52;23.60;99.90
35645;DHT22;21764;52.042;6.830;2023-09-18T08:57:53;26.70;99.70
35645;DHT22;21764;52.042;6.830;2023-09-18T09:02:55;26.70;97.90
35645;DHT22;21764;52.042;6.830;2023-09-18T09:07:55;25.70;98.90
35645;DHT22;21764;52.042;6.830;2023-09-18T09:12:58;25.20;99.00
35645;DHT22;21764;52.042;6.830;2023-09-18T09:18:07;23.80;98.50
35645;DHT22;21764;52.042;6.830;2023-09-18T09:23:09;24.10;99.90
35645;DHT22;21764;52.042;6.830;2023-09-18T09:28:11;25.10;98.30
35645;DHT22;21764;52.042;6.830;2023-09-18T09:33:12;26.90;95.40
35645;DHT22;21764;52.042;6.830;2023-09-18T09:38:13;26.20;94.40
35645;DHT22;21764;52.042;6.830;2023-09-18T09:43:17;25.00;97.20
35645;DHT22;21764;52.042;6.830;2023-09-18T09:48:18;25.80;95.90
35645;DHT22;21764;52.042;6.830;2023-09-18T09:53:43;27.10;94.10
35645;DHT22;21764;52.042;6.830;2023-09-18T09:59:02;25.70;93.40
35645;DHT22;21764;52.042;6.830;2023-09-18T10:04:08;25.00;94.90
35645;DHT22;21764;52.042;6.830;2023-09-18T10:09:10;25.80;94.30
35645;DHT22;21764;52.042;6.830;2023-09-18T10:14:20;25.50;94.80
35645;DHT22;21764;52.042;6.830;2023-09-18T10:19:27;26.50;93.10
35645;DHT22;21764;52.042;6.830;2023-09-18T10:24:41;25.90;93.90
35645;DHT22;21764;52.042;6.830;2023-09-18T10:29:49;25.90;93.00
35645;DHT22;21764;52.042;6.830;2023-09-18T10:34:52;27.40;91.30
35645;DHT22;21764;52.042;6.830;2023-09-18T10:39:53;26.80;91.00
35645;DHT22;21764;52.042;6.830;2023-09-18T10:44:55;27.60;89.90
35645;DHT22;21764;52.042;6.830;2023-09-18T10:49:56;27.30;90.30
35645;DHT22;21764;52.042;6.830;2023-09-18T10:54:56;27.80;89.50
35645;DHT22;21764;52.042;6.830;2023-09-18T10:59:58;28.10;89.30
35645;DHT22;21764;52.042;6.830;2023-09-18T11:04:58;26.90;90.50
35645;DHT22;21764;52.042;6.830;2023-09-18T11:09:59;26.50;91.20
35645;DHT22;21764;52.042;6.830;2023-09-18T11:15:31;26.40;91.50
35645;DHT22;21764;52.042;6.830;2023-09-18T11:20:33;26.10;90.80
35645;DHT22;21764;52.042;6.830;2023-09-18T11:30:54;24.90;92.60
35645;DHT22;21764;52.042;6.830;2023-09-18T11:36:07;24.50;93.30
35645;DHT22;21764;52.042;6.830;2023-09-18T11:41:26;24.20;94.20
35645;DHT22;21764;52.042;6.830;2023-09-18T11:46:27;24.10;95.10
35645;DHT22;21764;52.042;6.830;2023-09-18T11:51:29;24.40;94.40
35645;DHT22;21764;52.042;6.830;2023-09-18T11:56:30;24.60;94.70
35645;DHT22;21764;52.042;6.830;2023-09-18T12:01:31;24.70;94.70
35645;DHT22;21764;52.042;6.830;2023-09-18T12:06:37;24.90;94.80
35645;DHT22;21764;52.042;6.830;2023-09-18T12:11:41;24.90;93.50
35645;DHT22;21764;52.042;6.830;2023-09-18T12:16:43;24.90;93.50
35645;DHT22;21764;52.042;6.830;2023-09-18T12:21:46;24.80;93.70
35645;DHT22;21764;52.042;6.830;2023-09-18T12:26:51;25.10;94.20
35645;DHT22;21764;52.042;6.830;2023-09-18T12:31:52;24.70;93.70
35645;DHT22;21764;52.042;6.830;2023-09-18T12:36:53;24.70;94.10
35645;DHT22;21764;52.042;6.830;2023-09-18T12:41:53;24.70;93.20
35645;DHT22;21764;52.042;6.830;2023-09-18T12:46:55;24.90;92.90
35645;DHT22;21764;52.042;6.830;2023-09-18T12:52:00;24.90;93.40
35645;DHT22;21764;52.042;6.830;2023-09-18T12:57:00;24.90;92.80
35645;DHT22;21764;52.042;6.830;2023-09-18T13:02:05;25.00;92.70
35645;DHT22;21764;52.042;6.830;2023-09-18T13:07:08;25.00;91.90
35645;DHT22;21764;52.042;6.830;2023-09-18T13:12:10;24.70;92.20
35645;DHT22;21764;52.042;6.830;2023-09-18T13:17:10;24.60;92.10
35645;DHT22;21764;52.042;6.830;2023-09-18T13:22:22;24.60;91.50
35645;DHT22;21764;52.042;6.830;2023-09-18T13:27:25;24.70;91.80
35645;DHT22;21764;52.042;6.830;2023-09-18T13:32:26;24.70;91.40
35645;DHT22;21764;52.042;6.830;2023-09-18T13:37:26;24.60;90.70
35645;DHT22;21764;52.042;6.830;2023-09-18T13:42:29;24.70;91.30
35645;DHT22;21764;52.042;6.830;2023-09-18T13:47:30;24.80;91.30
35645;DHT22;21764;52.042;6.830;2023-09-18T13:52:33;24.90;90.80
35645;DHT22;21764;52.042;6.830;2023-09-18T13:57:34;25.20;91.10
35645;DHT22;21764;52.042;6.830;2023-09-18T14:02:35;25.30;90.90
35645;DHT22;21764;52.042;6.830;2023-09-18T14:07:37;25.30;90.60
35645;DHT22;21764;52.042;6.830;2023-09-18T14:12:43;25.20;90.20
35645;DHT22;21764;52.042;6.830;2023-09-18T14:17:44;25.10;89.70
35645;DHT22;21764;52.042;6.830;2023-09-18T14:22:45;25.00;90.30
35645;DHT22;21764;52.042;6.830;2023-09-18T14:27:47;25.10;90.20
35645;DHT22;21764;52.042;6.830;2023-09-18T14:32:47;25.00;89.40
35645;DHT22;21764;52.042;6.830;2023-09-18T14:37:50;24.80;89.40
35645;DHT22;21764;52.042;6.830;2023-09-18T14:42:50;24.90;87.60
35645;DHT22;21764;52.042;6.830;2023-09-18T14:47:51;24.40;89.20
35645;DHT22;21764;52.042;6.830;2023-09-18T14:52:52;24.20;90.30
35645;DHT22;21764;52.042;6.830;2023-09-18T14:57:53;24.20;89.80
35645;DHT22;21764;52.042;6.830;2023-09-18T15:02:54;24.20;90.40
35645;DHT22;21764;52.042;6.830;2023-09-18T15:07:55;24.40;89.00
35645;DHT22;21764;52.042;6.830;2023-09-18T15:12:55;24.30;88.90
35645;DHT22;21764;52.042;6.830;2023-09-18T15:17:56;24.20;87.50
35645;DHT22;21764;52.042;6.830;2023-09-18T15:22:58;24.10;87.40
35645;DHT22;21764;52.042;6.830;2023-09-18T15:27:58;24.20;89.10
35645;DHT22;21764;52.042;6.830;2023-09-18T15:32:59;24.20;89.30
35645;DHT22;21764;52.042;6.830;2023-09-18T15:38:00;24.20;89.10
35645;DHT22;21764;52.042;6.830;2023-09-18T15:43:01;24.20;88.00
35645;DHT22;21764;52.042;6.830;2023-09-18T15:48:02;24.00;86.50
35645;DHT22;21764;52.042;6.830;2023-09-18T15:53:04;24.00;88.70
35645;DHT22;21764;52.042;6.830;2023-09-18T15:58:05;23.80;88.50
35645;DHT22;21764;52.042;6.830;2023-09-18T16:03:07;23.70;89.00
35645;DHT22;21764;52.042;6.830;2023-09-18T16:08:08;23.70;87.40
35645;DHT22;21764;52.042;6.830;2023-09-18T16:13:09;23.50;85.50
35645;DHT22;21764;52.042;6.830;2023-09-18T16:18:09;23.50;86.80
35645;DHT22;21764;52.042;6.830;2023-09-18T16:23:11;23.30;86.90
35645;DHT22;21764;52.042;6.830;2023-09-18T16:28:12;23.10;87.50
35645;DHT22;21764;52.042;6.830;2023-09-18T16:33:13;22.90;88.50
35645;DHT22;21764;52.042;6.830;2023-09-18T16:38:13;22.80;89.60
35645;DHT22;21764;52.042;6.830;2023-09-18T16:43:14;22.80;89.70
35645;DHT22;21764;52.042;6.830;2023-09-18T16:48:15;22.90;88.90
35645;DHT22;21764;52.042;6.830;2023-09-18T16:53:15;22.20;92.00
35645;DHT22;21764;52.042;6.830;2023-09-18T16:58:16;21.30;94.20
35645;DHT22;21764;52.042;6.830;2023-09-18T17:03:17;20.70;95.80
35645;DHT22;21764;52.042;6.830;2023-09-18T17:08:18;20.30;97.10
35645;DHT22;21764;52.042;6.830;2023-09-18T17:13:18;20.10;98.30
35645;DHT22;21764;52.042;6.830;2023-09-18T17:18:19;19.80;99.90
35645;DHT22;21764;52.042;6.830;2023-09-18T17:23:20;19.30;99.90
35645;DHT22;21764;52.042;6.830;2023-09-18T17:28:21;18.90;99.90
35645;DHT22;21764;52.042;6.830;2023-09-18T17:33:21;18.70;99.90
35645;DHT22;21764;52.042;6.830;2023-09-18T17:38:22;18.50;99.90
35645;DHT22;21764;52.042;6.830;2023-09-18T17:43:24;18.50;99.90
35645;DHT22;21764;52.042;6.830;2023-09-18T17:48:25;18.30;99.90
35645;DHT22;21764;52.042;6.830;2023-09-18T17:53:25;18.30;99.90
35645;DHT22;21764;52.042;6.830;2023-09-18T17:58:26;18.10;99.90
35645;DHT22;21764;52.042;6.830;2023-09-18T18:03:27;18.00;99.90
35645;DHT22;21764;52.042;6.830;2023-09-18T18:08:28;18.00;99.90
35645;DHT22;21764;52.042;6.830;2023-09-18T18:13:28;17.90;99.90
35645;DHT22;21764;52.042;6.830;2023-09-18T18:18:29;17.90;99.90
35645;DHT22;21764;52.042;6.830;2023-09-18T18:23:30;17.80;99.90
35645;DHT22;21764;52.042;6.830;2023-09-18T18:28:30;17.80;99.90
35645;DHT22;21764;52.042;6.830;2023-09-18T18:33:32;17.80;99.90
35645;DHT22;21764;52.042;6.830;2023-09-18T18:38:32;17.90;99.90
35645;DHT22;21764;52.042;6.830;2023-09-18T18:43:34;17.80;99.90
35645;DHT22;21764;52.042;6.830;2023-09-18T18:48:35;17.80;99.90
35645;DHT22;21764;52.042;6.830;2023-09-18T18:53:36;17.80;99.90
35645;DHT22;21764;52.042;6.830;2023-09-18T18:58:37;17.80;99.90
35645;DHT22;21764;52.042;6.830;2023-09-18T19:03:37;17.70;99.90
35645;DHT22;21764;52.042;6.830;2023-09-18T19:08:38;17.70;99.90
35645;DHT22;21764;52.042;6.830;2023-09-18T19:13:39;17.70;99.90
35645;DHT22;21764;52.042;6.830;2023-09-18T19:18:41;17.80;99.90
35645;DHT22;21764;52.042;6.830;2023-09-18T19:23:42;17.70;99.90
35645;DHT22;21764;52.042;6.830;2023-09-18T19:28:43;17.80;99.90
35645;DHT22;21764;52.042;6.830;2023-09-18T19:33:44;17.90;99.90
35645;DHT22;21764;52.042;6.830;2023-09-18T19:38:44;18.00;99.90
35645;DHT22;21764;52.042;6.830;2023-09-18T19:43:45;18.00;99.90
35645;DHT22;21764;52.042;6.830;2023-09-18T19:48:48;17.80;99.90
35645;DHT22;21764;52.042;6.830;2023-09-18T19:53:49;17.70;99.90
35645;DHT22;21764;52.042;6.830;2023-09-18T19:58:50;17.60;99.90
35645;DHT22;21764;52.042;6.830;2023-09-18T20:03:50;17.50;99.90
35645;DHT22;21764;52.042;6.830;2023-09-18T20:08:51;17.40;99.90
35645;DHT22;21764;52.042;6.830;2023-09-18T20:13:52;17.40;99.90
35645;DHT22;21764;52.042;6.830;2023-09-18T20:18:53;17.40;99.90
35645;DHT22;21764;52.042;6.830;2023-09-18T20:23:53;17.30;99.90
35645;DHT22;21764;52.042;6.830;2023-09-18T20:28:54;17.20;99.90
35645;DHT22;21764;52.042;6.830;2023-09-18T20:33:55;17.20;99.90
35645;DHT22;21764;52.042;6.830;2023-09-18T20:38:56;17.30;99.90
35645;DHT22;21764;52.042;6.830;2023-09-18T20:43:57;17.30;99.90
35645;DHT22;21764;52.042;6.830;2023-09-18T20:48:58;17.30;99.90
35645;DHT22;21764;52.042;6.830;2023-09-18T20:53:59;17.20;99.90
35645;DHT22;21764;52.042;6.830;2023-09-18T20:59:03;17.20;99.90
35645;DHT22;21764;52.042;6.830;2023-09-18T21:04:04;17.30;99.90
35645;DHT22;21764;52.042;6.830;2023-09-18T21:09:05;17.20;99.90
35645;DHT22;21764;52.042;6.830;2023-09-18T21:14:07;17.20;99.90
35645;DHT22;21764;52.042;6.830;2023-09-18T21:19:08;17.10;99.90
35645;DHT22;21764;52.042;6.830;2023-09-18T21:24:10;17.10;99.90
35645;DHT22;21764;52.042;6.830;2023-09-18T21:29:11;17.20;99.90
35645;DHT22;21764;52.042;6.830;2023-09-18T21:34:11;17.50;99.90
35645;DHT22;21764;52.042;6.830;2023-09-18T21:39:12;17.50;99.90
35645;DHT22;21764;52.042;6.830;2023-09-18T21:44:13;17.60;99.90
35645;DHT22;21764;52.042;6.830;2023-09-18T21:49:15;17.60;99.90
35645;DHT22;21764;52.042;6.830;2023-09-18T21:54:18;17.60;99.90
35645;DHT22;21764;52.042;6.830;2023-09-18T21:59:18;17.60;99.90
35645;DHT22;21764;52.042;6.830;2023-09-18T22:04:19;17.60;99.90
35645;DHT22;21764;52.042;6.830;2023-09-18T22:09:21;17.60;99.90
35645;DHT22;21764;52.042;6.830;2023-09-18T22:14:25;17.60;99.90
35645;DHT22;21764;52.042;6.830;2023-09-18T22:19:26;17.50;99.90
35645;DHT22;21764;52.042;6.830;2023-09-18T22:24:26;17.20;99.90
35645;DHT22;21764;52.042;6.830;2023-09-18T22:29:27;17.00;99.90
35645;DHT22;21764;52.042;6.830;2023-09-18T22:34:28;17.00;99.90
35645;DHT22;21764;52.042;6.830;2023-09-18T22:56:11;16.60;99.90
35645;DHT22;21764;52.042;6.830;2023-09-18T23:01:14;16.40;99.90
35645;DHT22;21764;52.042;6.830;2023-09-18T23:06:16;16.40;99.90
35645;DHT22;21764;52.042;6.830;2023-09-18T23:11:16;16.40;99.90
35645;DHT22;21764;52.042;6.830;2023-09-18T23:16:20;16.20;99.90
35645;DHT22;21764;52.042;6.830;2023-09-18T23:21:25;16.20;99.90
35645;DHT22;21764;52.042;6.830;2023-09-18T23:26:26;16.10;99.90
35645;DHT22;21764;52.042;6.830;2023-09-18T23:31:29;16.10;99.90
35645;DHT22;21764;52.042;6.830;2023-09-18T23:36:30;16.20;99.90
35645;DHT22;21764;52.042;6.830;2023-09-18T23:41:31;16.20;99.90
35645;DHT22;21764;52.042;6.830;2023-09-18T23:46:32;16.10;99.90
35645;DHT22;21764;52.042;6.830;2023-09-18T23:51:33;16.10;99.90
35645;DHT22;21764;52.042;6.830;2023-09-18T23:56:34;16.00;99.90
